Milo, Iowa
Current Conditions -  °F | °C
As of 4:15 PM on Thursday 23 Oct 2014 (Local Time) from KOXV Reporting Station
Broken Clouds Broken Clouds  
Wind Chill: 64°   Ceiling: 1900
Heat Index: 64°   Visibility: 10mi
Dew Point: 57°   Wind: 8mph
Humidity: 77%   Direction: 200°SSW
Pressure: 30.01"   Gusts: NA
Location:  41.29°N, 93.44°W
Report Text: KOXV 232115Z AUTO 20007KT 10SM BKN019 BKN024 18/14 A3001 RMK AO2
Loading
Personal Weather Stations






























Interactive Weather Map
Tropical Storm Tracking
New forecast layout! Learn more

10-Day Weather Forecast

Advertisements
Track Severe Weather on mobile